Time;durP1;ratioP1;P1;durP2;ratioP2;P2;SDS_P1;SDS_P2;PMS_P1;PMS_P2;Temp;Humidity;BMP_temperature;BMP_pressure;BME280_temperature;BME280_humidity;BME280_pressure;Samples;Min_cycle;Max_cycle;Signal;HPM_P1;HPM_P2
2022/11/08 00:02:06;;;;;;;11.48;5.05;;;;;;;9.75;100.00;100274.50;5047154;28;20139;-72
2022/11/08 00:04:33;;;;;;;12.60;4.80;;;;;;;9.63;100.00;100251.22;5050406;28;20079;-71
2022/11/08 00:15:16;;;;;;;11.02;5.18;;;;;;;9.77;100.00;100286.69;5049247;28;20039;-72
2022/11/08 00:17:43;;;;;;;11.20;5.75;;;;;;;9.72;100.00;100285.22;5046983;28;20053;-73
2022/11/08 00:20:09;;;;;;;11.80;5.28;;;;;;;9.73;100.00;100279.00;5045790;28;20042;-73
2022/11/08 00:22:36;;;;;;;9.45;5.07;;;;;;;9.54;100.00;100262.25;5055201;28;20044;-73
2022/11/08 00:25:03;;;;;;;8.75;4.68;;;;;;;9.65;100.00;100286.41;5052798;28;20060;-73
2022/11/08 00:27:30;;;;;;;10.13;4.90;;;;;;;9.63;100.00;100282.97;5046637;28;20051;-72
2022/11/08 00:29:56;;;;;;;10.63;5.35;;;;;;;9.59;100.00;100279.63;5037199;28;20064;-73
2022/11/08 00:32:24;;;;;;;11.02;5.15;;;;;;;9.56;100.00;100274.47;5050289;28;20544;-72
2022/11/08 00:34:52;;;;;;;8.60;4.78;;;;;;;9.45;100.00;100261.69;5038285;28;20041;-72
2022/11/08 00:37:19;;;;;;;10.23;5.40;;;;;;;9.51;100.00;100279.09;5045775;28;20720;-74
2022/11/08 00:39:46;;;;;;;13.32;5.38;;;;;;;9.46;100.00;100281.06;5038089;28;20148;-73
2022/11/08 00:42:12;;;;;;;11.30;5.63;;;;;;;9.43;100.00;100283.88;5048045;28;20500;-74
2022/11/08 00:44:39;;;;;;;14.55;6.50;;;;;;;9.40;100.00;100273.44;5046826;28;20445;-73
2022/11/08 00:47:06;;;;;;;11.15;5.20;;;;;;;9.32;100.00;100263.19;5048370;28;20120;-73
2022/11/08 00:49:32;;;;;;;11.15;5.60;;;;;;;9.29;100.00;100276.50;5021284;28;20049;-73
2022/11/08 00:51:59;;;;;;;12.63;5.60;;;;;;;9.26;100.00;100276.69;5034240;28;20068;-71
2022/11/08 00:54:25;;;;;;;8.93;5.38;;;;;;;9.21;100.00;100270.72;5040752;28;20056;-73
2022/11/08 00:56:52;;;;;;;9.68;5.28;;;;;;;9.14;100.00;100272.75;5028751;28;20041;-71
2022/11/08 00:59:19;;;;;;;9.57;5.55;;;;;;;9.11;100.00;100272.91;5030223;28;20504;-71
2022/11/08 01:01:46;;;;;;;9.10;5.53;;;;;;;9.07;100.00;100267.81;5040298;28;20044;-72
2022/11/08 01:04:16;;;;;;;15.25;6.28;;;;;;;9.02;100.00;100265.38;5034315;28;20685;-71
2022/11/08 01:06:42;;;;;;;13.50;6.07;;;;;;;8.92;100.00;100256.13;5041384;28;20069;-71
2022/11/08 01:09:09;;;;;;;12.07;6.13;;;;;;;8.93;100.00;100262.28;5032143;28;20148;-72
2022/11/08 01:11:37;;;;;;;16.70;7.00;;;;;;;8.87;100.00;100263.38;5050494;28;20069;-71
2022/11/08 01:14:04;;;;;;;14.63;6.18;;;;;;;8.84;100.00;100268.78;5051113;28;20076;-71
2022/11/08 01:16:32;;;;;;;11.57;6.18;;;;;;;8.78;100.00;100269.06;5050481;28;20442;-71
2022/11/08 01:19:00;;;;;;;11.23;5.75;;;;;;;8.76;100.00;100274.38;5036759;28;20052;-70
2022/11/08 01:21:28;;;;;;;14.38;6.43;;;;;;;8.70;100.00;100261.44;5042109;28;20064;-70
2022/11/08 01:23:54;;;;;;;13.85;5.85;;;;;;;8.67;100.00;100256.28;5047809;28;20050;-71
2022/11/08 01:26:24;;;;;;;14.85;6.47;;;;;;;8.64;100.00;100260.84;5051565;28;20142;-72
2022/11/08 01:28:51;;;;;;;9.30;5.70;;;;;;;8.57;100.00;100254.94;5042035;28;20466;-70
2022/11/08 01:31:21;;;;;;;9.60;5.65;;;;;;;8.56;100.00;100253.22;5046991;28;20045;-70
2022/11/08 01:33:48;;;;;;;12.50;6.10;;;;;;;8.56;100.00;100247.09;5054614;28;20044;-72
2022/11/08 01:36:22;;;;;;;11.45;5.78;;;;;;;8.52;100.00;100251.63;5053132;28;20037;-73
2022/11/08 01:38:49;;;;;;;13.60;5.70;;;;;;;8.56;100.00;100250.59;5043026;28;20045;-69
2022/11/08 01:41:18;;;;;;;13.32;6.43;;;;;;;8.58;100.00;100248.75;5038275;28;20558;-72
2022/11/08 01:43:50;;;;;;;13.75;5.88;;;;;;;8.60;100.00;100244.28;5048984;28;20132;-71
2022/11/08 01:46:32;;;;;;;16.90;6.88;;;;;;;8.60;100.00;100240.78;5052691;28;20099;-70
2022/11/08 01:49:26;;;;;;;11.30;5.68;;;;;;;8.50;100.00;100239.44;5035438;28;20041;-73
2022/11/08 01:52:11;;;;;;;11.85;5.90;;;;;;;8.42;100.00;100235.31;5047011;28;20667;-72
2022/11/08 01:54:40;;;;;;;12.63;6.00;;;;;;;8.37;100.00;100233.78;5041335;28;20046;-73
2022/11/08 01:57:12;;;;;;;11.63;5.70;;;;;;;8.30;100.00;100224.38;5047505;28;20059;-72
2022/11/08 01:59:41;;;;;;;8.75;5.57;;;;;;;8.28;100.00;100232.34;5037707;28;20421;-72
2022/11/08 02:02:10;;;;;;;10.27;6.00;;;;;;;8.24;100.00;100230.75;5052271;28;20052;-71
2022/11/08 02:04:39;;;;;;;11.18;5.82;;;;;;;8.21;100.00;100224.72;5058318;28;20064;-72
2022/11/08 02:07:07;;;;;;;11.20;6.05;;;;;;;8.18;100.00;100216.97;5050261;28;20071;-74
2022/11/08 02:09:36;;;;;;;10.25;5.97;;;;;;;8.08;100.00;100204.13;5035596;28;20045;-73
2022/11/08 02:12:03;;;;;;;11.48;6.20;;;;;;;8.18;100.00;100215.19;5060536;28;20044;-73
2022/11/08 02:14:31;;;;;;;13.10;7.20;;;;;;;8.21;100.00;100217.69;5040804;28;20122;-73
2022/11/08 02:16:57;;;;;;;12.88;5.90;;;;;;;8.19;100.00;100213.38;5059153;28;20042;-73
2022/11/08 02:19:38;;;;;;;13.82;6.18;;;;;;;8.15;100.00;100211.81;5034887;28;20064;-72
2022/11/08 02:22:27;;;;;;;11.07;5.95;;;;;;;8.14;100.00;100220.63;5052776;28;20155;-72
2022/11/08 02:24:57;;;;;;;13.52;6.45;;;;;;;7.98;100.00;100188.75;5049030;28;20052;-73
2022/11/08 02:27:24;;;;;;;11.57;5.90;;;;;;;8.12;100.00;100212.78;5042666;28;20063;-71
2022/11/08 02:29:53;;;;;;;14.23;6.88;;;;;;;8.08;100.00;100211.19;5039731;28;20036;-72
2022/11/08 02:32:20;;;;;;;9.90;6.00;;;;;;;8.10;100.00;100218.13;5053002;28;20044;-72
2022/11/08 02:34:53;;;;;;;11.50;5.95;;;;;;;8.10;100.00;100223.38;5054409;28;19928;-73
2022/11/08 02:37:20;;;;;;;13.10;6.65;;;;;;;8.12;100.00;100219.84;5044955;28;20148;-73
2022/11/08 02:39:47;;;;;;;13.18;6.30;;;;;;;8.13;100.00;100211.00;5036496;28;20052;-73
2022/11/08 02:42:17;;;;;;;15.60;7.07;;;;;;;8.14;100.00;100204.81;5053591;28;20102;-72
2022/11/08 02:44:45;;;;;;;16.08;6.70;;;;;;;8.14;100.00;100196.91;5045665;28;20128;-70
2022/11/08 02:47:12;;;;;;;12.27;6.43;;;;;;;8.22;100.00;100200.06;5047091;28;20063;-73
2022/11/08 02:49:39;;;;;;;16.48;6.45;;;;;;;8.23;100.00;100197.38;5034163;28;20412;-72
2022/11/08 02:52:06;;;;;;;14.57;7.15;;;;;;;8.25;100.00;100199.94;5053596;28;20048;-73
2022/11/08 02:54:33;;;;;;;12.50;6.57;;;;;;;8.16;100.00;100176.59;5044230;28;20124;-70
2022/11/08 02:56:59;;;;;;;12.80;6.32;;;;;;;8.25;100.00;100184.13;5044919;28;20055;-73
2022/11/08 02:59:26;;;;;;;14.93;7.13;;;;;;;8.32;100.00;100191.78;5036182;28;20047;-69
2022/11/08 03:01:53;;;;;;;13.57;6.63;;;;;;;8.19;100.00;100168.53;5043105;28;20044;-72
2022/11/08 03:04:19;;;;;;;12.05;6.75;;;;;;;8.26;100.00;100189.34;5048511;28;20049;-71
2022/11/08 03:06:46;;;;;;;11.82;6.65;;;;;;;8.24;100.00;100187.69;5045535;28;20144;-71
2022/11/08 03:09:13;;;;;;;13.82;6.38;;;;;;;8.21;100.00;100179.88;5038524;28;20045;-72
2022/11/08 03:11:39;;;;;;;10.60;6.53;;;;;;;8.21;100.00;100188.66;5044826;28;20489;-72
2022/11/08 03:14:06;;;;;;;15.00;7.35;;;;;;;8.20;100.00;100186.06;5042544;28;20132;-72
2022/11/08 03:16:32;;;;;;;14.40;6.85;;;;;;;8.05;100.00;100154.13;5035486;28;20053;-73
2022/11/08 03:18:59;;;;;;;12.20;6.72;;;;;;;8.20;100.00;100170.25;5039067;28;20053;-73
2022/11/08 03:21:25;;;;;;;13.02;6.65;;;;;;;8.10;100.00;100154.81;5042687;28;20047;-73
2022/11/08 03:23:52;;;;;;;16.05;6.90;;;;;;;8.26;100.00;100181.44;5044136;28;20045;-73
2022/11/08 03:26:19;;;;;;;10.30;6.35;;;;;;;8.28;100.00;100176.09;5042520;28;20127;-70
2022/11/08 03:28:45;;;;;;;12.38;6.65;;;;;;;8.29;100.00;100173.38;5042463;28;20050;-72
2022/11/08 03:31:12;;;;;;;10.60;6.13;;;;;;;8.27;100.00;100169.09;5041313;28;20496;-73
2022/11/08 03:33:38;;;;;;;12.70;6.97;;;;;;;8.29;100.00;100164.63;5045345;28;20045;-71
2022/11/08 03:36:05;;;;;;;11.27;6.53;;;;;;;8.26;100.00;100149.78;5042471;28;20110;-71
2022/11/08 03:38:31;;;;;;;10.60;6.15;;;;;;;8.11;100.00;100124.03;5038546;28;20146;-72
2022/11/08 03:40:58;;;;;;;10.88;5.95;;;;;;;8.13;100.00;100132.75;5039986;28;20063;-72
2022/11/08 03:43:25;;;;;;;12.52;7.05;;;;;;;8.29;100.00;100156.72;5046253;28;20057;-72
2022/11/08 03:45:52;;;;;;;10.70;6.18;;;;;;;8.26;100.00;100151.56;5042138;28;20124;-71
2022/11/08 03:48:18;;;;;;;14.20;6.53;;;;;;;8.28;100.00;100145.28;5051261;28;20080;-70
2022/11/08 03:50:46;;;;;;;11.32;6.53;;;;;;;8.27;100.00;100146.22;5038370;28;20521;-72
2022/11/08 03:53:12;;;;;;;9.52;5.78;;;;;;;8.22;100.00;100142.03;5050434;28;20113;-72
2022/11/08 03:55:39;;;;;;;11.43;6.00;;;;;;;8.19;100.00;100147.44;5051343;28;20140;-70
2022/11/08 03:58:05;;;;;;;13.02;6.20;;;;;;;8.12;100.00;100148.63;5053738;28;20053;-73
2022/11/08 04:00:32;;;;;;;8.38;5.63;;;;;;;8.03;100.00;100148.06;5032981;28;20477;-71
2022/11/08 04:03:02;;;;;;;11.23;6.32;;;;;;;8.00;100.00;100158.75;5046479;28;20048;-71
2022/11/08 04:05:31;;;;;;;;;;;;;;;7.94;100.00;100151.09;5052931;28;20049;-72
2022/11/08 04:07:59;;;;;;;10.85;5.93;;;;;;;7.87;100.00;100144.31;5053094;28;19921;-72
2022/11/08 04:10:25;;;;;;;14.90;6.35;;;;;;;7.79;100.00;100121.84;5034192;28;20045;-73
2022/11/08 04:15:37;;;;;;;11.55;5.88;;;;;;;7.82;100.00;100129.63;5040431;28;20045;-73
2022/11/08 04:23:35;;;;;;;11.90;5.97;;;;;;;7.55;100.00;100123.69;5054627;28;20131;-73
2022/11/08 04:26:07;;;;;;;9.05;6.05;;;;;;;7.50;100.00;100117.72;5041369;28;20053;-72
2022/11/08 04:28:36;;;;;;;12.35;6.07;;;;;;;7.46;100.00;100106.44;5046827;28;20045;-72
2022/11/08 04:31:14;;;;;;;15.40;6.63;;;;;;;7.35;100.00;100083.16;5032645;28;20048;-72
2022/11/08 04:33:41;;;;;;;9.07;6.30;;;;;;;7.43;100.00;100100.41;5044720;28;20052;-73
2022/11/08 04:36:11;;;;;;;11.23;5.57;;;;;;;7.37;100.00;100099.75;5041668;28;20044;-72
2022/11/08 04:38:37;;;;;;;12.85;5.60;;;;;;;7.30;100.00;100087.72;5043044;28;20049;-69
2022/11/08 04:41:06;;;;;;;8.63;5.50;;;;;;;7.30;100.00;100090.34;5034859;28;20072;-73
2022/11/08 04:43:33;;;;;;;10.75;5.97;;;;;;;7.16;100.00;100076.84;5040957;28;20057;-69
2022/11/08 04:46:05;;;;;;;15.15;6.00;;;;;;;7.26;100.00;100101.06;5042130;28;20056;-71
2022/11/08 04:48:32;;;;;;;9.25;5.10;;;;;;;7.22;100.00;100095.06;5044412;28;20052;-72
2022/11/08 04:51:06;;;;;;;10.98;6.18;;;;;;;7.19;100.00;100087.28;5038899;28;20436;-73
2022/11/08 04:53:33;;;;;;;12.85;5.65;;;;;;;7.17;100.00;100097.00;5045549;28;20633;-71
2022/11/08 04:56:02;;;;;;;12.57;6.00;;;;;;;7.09;100.00;100093.78;5035620;28;20071;-71
2022/11/08 04:58:32;;;;;;;9.82;6.28;;;;;;;7.13;100.00;100099.81;5039569;28;20045;-71
2022/11/08 05:01:01;;;;;;;9.85;6.00;;;;;;;7.05;100.00;100094.84;5035683;28;20079;-72
2022/11/08 05:03:28;;;;;;;10.77;6.00;;;;;;;6.98;100.00;100090.72;5044400;28;20136;-72
2022/11/08 05:05:55;;;;;;;11.52;6.47;;;;;;;6.91;100.00;100094.50;5044379;28;20044;-69
2022/11/08 05:08:21;;;;;;;14.23;6.60;;;;;;;6.74;100.00;100060.03;5040935;28;20041;-69
2022/11/08 05:10:48;;;;;;;14.75;6.88;;;;;;;6.80;100.00;100079.09;5037181;28;20040;-72
2022/11/08 05:13:14;;;;;;;11.73;6.38;;;;;;;6.73;100.00;100059.19;5054069;28;20060;-72
2022/11/08 05:15:41;;;;;;;14.48;6.90;;;;;;;6.77;100.00;100081.81;5040291;28;20042;-73
2022/11/08 05:18:08;;;;;;;9.35;5.80;;;;;;;6.78;100.00;100072.16;5045284;28;20457;-71
2022/11/08 05:23:22;;;;;;;11.35;5.90;;;;;;;6.71;100.00;100065.41;5040171;28;20080;-72
2022/11/08 05:25:53;;;;;;;12.20;5.72;;;;;;;6.67;100.00;100049.72;5038816;28;20053;-72
2022/11/08 05:28:20;;;;;;;13.05;6.32;;;;;;;6.67;100.00;100060.25;5045408;28;20135;-71
2022/11/08 05:30:54;;;;;;;11.20;6.70;;;;;;;6.65;100.00;100069.97;5033572;28;20160;-71
2022/11/08 05:33:22;;;;;;;12.05;6.85;;;;;;;6.64;100.00;100060.34;5042201;28;20163;-72
2022/11/08 05:35:48;;;;;;;13.70;6.63;;;;;;;6.64;100.00;100059.50;5041082;28;20059;-71
2022/11/08 05:38:15;;;;;;;12.93;7.30;;;;;;;6.64;100.00;100060.34;5043125;28;20049;-69
2022/11/08 05:40:43;;;;;;;12.40;6.70;;;;;;;6.59;100.00;100043.03;5035415;28;20049;-72
2022/11/08 05:43:10;;;;;;;11.57;6.88;;;;;;;6.63;100.00;100050.75;5043995;28;20146;-72
2022/11/08 05:45:37;;;;;;;11.70;6.63;;;;;;;6.61;100.00;100055.19;5042340;28;20556;-72
2022/11/08 05:48:04;;;;;;;12.45;6.65;;;;;;;6.51;100.00;100045.94;5041991;28;20041;-73
2022/11/08 05:50:33;;;;;;;14.63;7.65;;;;;;;6.58;100.00;100057.97;5036971;28;20099;-73
2022/11/08 05:53:00;;;;;;;12.25;6.72;;;;;;;6.55;100.00;100057.22;5042421;28;20050;-73
2022/11/08 05:55:27;;;;;;;12.45;6.90;;;;;;;6.61;100.00;100049.13;5042810;28;20057;-71
2022/11/08 05:57:54;;;;;;;14.27;7.18;;;;;;;6.51;100.00;100022.25;5045428;28;20072;-72
2022/11/08 06:00:20;;;;;;;15.02;7.57;;;;;;;6.53;100.00;100036.22;5035649;28;20053;-71
2022/11/08 06:02:47;;;;;;;12.50;7.35;;;;;;;6.48;100.00;100048.66;5047871;28;20140;-71
2022/11/08 06:05:14;;;;;;;13.20;7.18;;;;;;;6.45;100.00;100051.44;5051790;28;20072;-71
2022/11/08 06:07:40;;;;;;;10.63;7.15;;;;;;;6.44;100.00;100059.38;5046988;28;20143;-73
2022/11/08 06:10:08;;;;;;;14.40;7.88;;;;;;;6.43;100.00;100057.66;5046056;28;20454;-71
2022/11/08 06:12:37;;;;;;;14.45;6.88;;;;;;;6.38;100.00;100044.66;5044022;28;20037;-72
2022/11/08 06:15:05;;;;;;;13.90;7.28;;;;;;;6.48;100.00;100045.19;5040109;28;20045;-72
2022/11/08 06:17:32;;;;;;;12.15;7.32;;;;;;;6.50;100.00;100044.22;5056449;28;20151;-70
2022/11/08 06:19:59;;;;;;;11.35;6.85;;;;;;;6.47;100.00;100046.09;5045128;28;20045;-71
2022/11/08 06:22:29;;;;;;;19.13;7.07;;;;;;;6.36;100.00;100032.47;5045924;28;20131;-72
2022/11/08 06:24:56;;;;;;;13.77;7.68;;;;;;;6.33;100.00;100031.66;5050179;28;20237;-71
2022/11/08 06:27:22;;;;;;;15.13;7.03;;;;;;;6.47;100.00;100062.72;5051145;28;20059;-72
2022/11/08 06:29:49;;;;;;;17.85;7.65;;;;;;;6.48;100.00;100068.84;5042607;28;20049;-73
2022/11/08 06:32:16;;;;;;;9.35;6.53;;;;;;;6.45;100.00;100056.69;5041274;28;20045;-73
2022/11/08 06:34:44;;;;;;;13.13;7.22;;;;;;;6.46;100.00;100053.13;5050065;28;20089;-72
2022/11/08 06:37:12;;;;;;;16.92;8.18;;;;;;;6.49;100.00;100046.91;5057772;28;20095;-71
2022/11/08 06:39:39;;;;;;;14.00;7.93;;;;;;;6.43;100.00;100048.00;5042379;28;20147;-72
2022/11/08 06:42:06;;;;;;;17.73;8.48;;;;;;;6.35;100.00;100031.63;5039017;28;20456;-73
2022/11/08 06:44:33;;;;;;;12.27;7.00;;;;;;;6.41;100.00;100047.19;5037210;28;20090;-70
2022/11/08 06:46:59;;;;;;;16.70;6.97;;;;;;;6.44;100.00;100057.59;5046948;28;20139;-71
2022/11/08 06:49:26;;;;;;;17.45;7.70;;;;;;;6.46;100.00;100050.50;5042273;28;20155;-70
2022/11/08 06:51:53;;;;;;;17.20;7.70;;;;;;;6.47;100.00;100062.72;5038182;28;20072;-73
2022/11/08 06:54:19;;;;;;;15.07;8.63;;;;;;;6.54;100.00;100063.38;5057274;28;20135;-71
2022/11/08 06:56:54;;;;;;;19.52;8.27;;;;;;;6.56;100.00;100051.03;5043048;28;20044;-72
2022/11/08 06:59:22;;;;;;;16.77;8.63;;;;;;;6.48;100.00;100027.63;5043492;28;20115;-73
2022/11/08 07:01:48;;;;;;;15.35;8.18;;;;;;;6.58;100.00;100038.69;5035750;28;20045;-72
2022/11/08 07:04:15;;;;;;;18.13;8.25;;;;;;;6.76;100.00;100060.84;5051379;28;20055;-70
2022/11/08 07:06:42;;;;;;;14.52;7.88;;;;;;;6.84;100.00;100061.41;5051994;28;20132;-72
2022/11/08 07:09:08;;;;;;;12.85;7.82;;;;;;;6.87;100.00;100063.94;5041572;28;20045;-70
2022/11/08 07:11:35;;;;;;;17.23;8.98;;;;;;;6.81;100.00;100057.13;5038621;28;20041;-72
2022/11/08 07:14:02;;;;;;;12.18;8.15;;;;;;;6.97;100.00;100074.06;5044934;28;20128;-72
2022/11/08 07:16:28;;;;;;;13.98;8.48;;;;;;;6.99;100.00;100071.38;5044396;28;20065;-72
2022/11/08 07:18:55;;;;;;;14.32;8.18;;;;;;;7.00;100.00;100079.22;5053375;28;20499;-69
2022/11/08 07:21:22;;;;;;;14.77;8.35;;;;;;;6.86;100.00;100046.44;5038168;28;20492;-70
2022/11/08 07:23:49;;;;;;;13.73;8.65;;;;;;;6.93;100.00;100061.06;5050847;28;20052;-74
2022/11/08 07:26:15;;;;;;;17.75;8.45;;;;;;;7.03;100.00;100075.63;5045227;28;20045;-70
2022/11/08 07:28:42;;;;;;;14.73;8.38;;;;;;;7.01;100.00;100075.66;5049241;28;20545;-73
2022/11/08 07:31:09;;;;;;;12.98;8.30;;;;;;;7.00;100.00;100071.31;5032740;28;20404;-72
2022/11/08 07:33:36;;;;;;;13.63;8.65;;;;;;;7.04;100.00;100082.59;5051228;28;20041;-72
2022/11/08 07:36:03;;;;;;;15.55;8.57;;;;;;;7.04;100.00;100086.09;5043759;28;20132;-72
2022/11/08 07:38:30;;;;;;;16.23;8.20;;;;;;;7.10;100.00;100090.25;5054306;28;20037;-74
2022/11/08 07:40:58;;;;;;;16.45;8.35;;;;;;;7.18;100.00;100088.19;5035800;28;20045;-72
2022/11/08 07:43:26;;;;;;;21.30;8.68;;;;;;;7.13;100.00;100076.97;5046562;28;20052;-70
2022/11/08 07:45:58;;;;;;;17.73;8.73;;;;;;;7.32;100.00;100087.66;5046294;28;20044;-74
2022/11/08 07:48:29;;;;;;;16.65;8.52;;;;;;;7.32;100.00;100088.53;5047393;28;20180;-71
2022/11/08 07:50:56;;;;;;;14.27;9.00;;;;;;;7.38;100.00;100088.31;5033543;28;20045;-71
2022/11/08 07:53:23;;;;;;;21.95;9.20;;;;;;;7.33;100.00;100076.22;5045357;28;20100;-74
2022/11/08 07:55:50;;;;;;;18.40;8.60;;;;;;;7.53;100.00;100093.88;5041664;28;20047;-71
2022/11/08 07:58:16;;;;;;;16.17;9.43;;;;;;;7.51;100.00;100075.50;5054509;28;20041;-71
2022/11/08 08:00:44;;;;;;;14.23;8.30;;;;;;;7.58;100.00;100084.88;5034940;28;20046;-73
2022/11/08 08:03:13;;;;;;;16.30;8.75;;;;;;;7.70;100.00;100108.13;5041596;28;20051;-72
2022/11/08 08:05:42;;;;;;;14.90;8.18;;;;;;;7.74;100.00;100107.06;5049458;28;20056;-73
2022/11/08 08:08:13;;;;;;;14.85;8.73;;;;;;;7.78;100.00;100099.88;5046451;28;20051;-73
2022/11/08 08:10:40;;;;;;;12.82;8.35;;;;;;;7.84;100.00;100099.66;5035604;28;20065;-72
2022/11/08 08:13:07;;;;;;;14.00;8.63;;;;;;;7.92;100.00;100101.97;5044509;28;20052;-71
2022/11/08 08:15:34;;;;;;;14.10;9.38;;;;;;;7.87;100.00;100090.78;5040061;28;20080;-70
2022/11/08 08:18:03;;;;;;;13.55;9.15;;;;;;;8.02;100.00;100093.63;5037880;28;20077;-72
2022/11/08 08:20:31;;;;;;;12.45;8.55;;;;;;;8.07;100.00;100104.81;5041988;28;20932;-73
2022/11/08 08:22:59;;;;;;;13.93;8.70;;;;;;;8.04;100.00;100101.44;5041832;28;20112;-73
2022/11/08 08:25:27;;;;;;;17.42;9.30;;;;;;;8.07;100.00;100107.47;5050006;28;20063;-72
2022/11/08 08:27:58;;;;;;;16.63;8.80;;;;;;;8.11;100.00;100097.66;5047695;28;20128;-74
2022/11/08 08:30:25;;;;;;;14.48;8.45;;;;;;;8.07;100.00;100094.28;5036329;28;20505;-73
2022/11/08 08:33:00;;;;;;;15.30;9.00;;;;;;;8.25;100.00;100110.25;5038031;28;20136;-74
2022/11/08 08:35:47;;;;;;;14.77;8.45;;;;;;;8.37;100.00;100101.84;5037018;28;20160;-73
2022/11/08 08:38:14;;;;;;;13.63;8.30;;;;;;;8.51;100.00;100102.13;5038235;28;20041;-72
2022/11/08 08:40:40;;;;;;;16.15;10.25;;;;;;;8.69;100.00;100101.31;5042586;28;20048;-73
2022/11/08 08:43:07;;;;;;;19.05;9.75;;;;;;;8.86;100.00;100103.22;5041679;28;20381;-73
2022/11/08 08:45:34;;;;;;;15.27;9.20;;;;;;;8.87;100.00;100090.88;5039436;28;20591;-71
2022/11/08 08:48:01;;;;;;;18.35;8.25;;;;;;;8.97;100.00;100094.84;5043322;28;20045;-73
2022/11/08 08:50:30;;;;;;;19.08;9.52;;;;;;;9.05;100.00;100092.69;5045104;28;20878;-74
2022/11/08 08:52:58;;;;;;;12.70;8.20;;;;;;;9.12;100.00;100087.06;5045185;28;20059;-71
2022/11/08 08:55:25;;;;;;;17.35;8.73;;;;;;;9.23;100.00;100097.16;5044663;28;20045;-72
2022/11/08 08:57:51;;;;;;;21.20;9.07;;;;;;;9.17;100.00;100076.28;5051179;28;20056;-74
2022/11/08 09:00:18;;;;;;;14.10;8.25;;;;;;;9.28;100.00;100095.16;5038770;28;20095;-74
2022/11/08 09:03:08;;;;;;;19.58;8.95;;;;;;;9.34;100.00;100088.72;5041917;28;20056;-74
2022/11/08 09:05:35;;;;;;;16.15;8.32;;;;;;;9.35;100.00;100091.28;5040202;28;20172;-71
2022/11/08 09:08:02;;;;;;;19.92;8.05;;;;;;;9.44;100.00;100092.66;5043118;28;20143;-71
2022/11/08 09:10:29;;;;;;;17.08;7.88;;;;;;;9.38;100.00;100088.50;5042617;28;20060;-73
2022/11/08 09:12:56;;;;;;;18.85;7.72;;;;;;;9.56;100.00;100101.78;5038315;28;20045;-71
2022/11/08 09:15:22;;;;;;;14.02;8.23;;;;;;;9.59;100.00;100114.84;5038947;28;20041;-72
2022/11/08 09:17:52;;;;;;;15.48;8.48;;;;;;;9.61;100.00;100107.69;5048644;28;20094;-71
2022/11/08 09:20:19;;;;;;;12.77;7.53;;;;;;;9.64;100.00;100113.69;5040744;28;20041;-72
2022/11/08 09:22:46;;;;;;;20.73;8.93;;;;;;;9.56;100.00;100096.50;5036131;28;20148;-69
2022/11/08 09:25:12;;;;;;;16.92;8.63;;;;;;;9.59;100.00;100077.84;5046623;28;20053;-70
2022/11/08 09:27:39;;;;;;;17.00;9.23;;;;;;;9.84;100.00;100102.16;5047344;28;20072;-71
2022/11/08 09:30:06;;;;;;;19.33;10.50;;;;;;;9.88;100.00;100090.50;5042038;28;20045;-72
2022/11/08 09:32:33;;;;;;;22.80;9.73;;;;;;;10.00;100.00;100103.13;5037783;28;20120;-70
2022/11/08 09:35:20;;;;;;;18.15;8.02;;;;;;;10.05;100.00;100102.91;5040404;28;20045;-73
2022/11/08 09:37:47;;;;;;;18.83;8.60;;;;;;;10.14;100.00;100105.94;5047928;28;20710;-72
2022/11/08 09:40:24;;;;;;;11.85;7.25;;;;;;;10.38;100.00;100105.69;5046993;28;20053;-73
2022/11/08 09:43:11;;;;;;;12.93;6.97;;;;;;;10.61;100.00;100102.72;5042451;28;20052;-74
2022/11/08 09:45:46;;;;;;;12.93;6.88;;;;;;;10.98;100.00;100095.50;5045199;28;20541;-75
2022/11/08 09:48:24;;;;;;;10.20;5.65;;;;;;;11.35;100.00;100084.59;5047162;28;20049;-74
2022/11/08 09:50:53;;;;;;;9.70;5.30;;;;;;;11.67;100.00;100080.16;5042461;28;20091;-73
2022/11/08 09:53:25;;;;;;;9.70;4.90;;;;;;;11.91;100.00;100077.94;5043517;28;20070;-71
2022/11/08 09:56:04;;;;;;;9.13;4.80;;;;;;;11.87;98.59;100068.44;5042529;28;20049;-73
2022/11/08 09:58:53;;;;;;;9.38;4.20;;;;;;;11.88;99.11;100073.66;5057333;28;20055;-70
2022/11/08 10:01:21;;;;;;;9.77;4.10;;;;;;;11.98;97.58;100083.75;5039441;28;20042;-72
2022/11/08 10:03:56;;;;;;;7.30;3.80;;;;;;;11.95;96.71;100098.06;5049749;28;20406;-72
2022/11/08 10:06:46;;;;;;;6.63;3.67;;;;;;;12.05;97.18;100095.72;5054913;28;20084;-74
2022/11/08 10:09:49;;;;;;;7.20;3.78;;;;;;;12.24;96.60;100094.56;5041070;28;20056;-74
2022/11/08 10:12:34;;;;;;;5.72;3.00;;;;;;;12.38;93.93;100076.97;5041702;28;20055;-72
2022/11/08 10:15:23;;;;;;;8.80;3.83;;;;;;;12.61;92.63;100068.47;5042217;28;20148;-72
2022/11/08 10:17:50;;;;;;;8.45;3.65;;;;;;;12.82;91.30;100074.28;5050507;28;20048;-73
2022/11/08 10:20:31;;;;;;;6.55;3.55;;;;;;;13.01;88.78;100066.91;5035848;28;20454;-74
2022/11/08 10:23:22;;;;;;;6.90;3.40;;;;;;;13.07;87.44;100063.84;5032032;28;20432;-72
2022/11/08 10:26:13;;;;;;;5.90;3.00;;;;;;;13.17;87.03;100053.53;5042375;28;20087;-73
2022/11/08 10:31:32;;;;;;;5.07;3.38;;;;;;;13.27;84.79;100034.22;5029022;28;20046;-71
2022/11/08 10:34:01;;;;;;;4.43;3.72;;;;;;;13.24;84.50;100052.19;5029263;28;20037;-73
2022/11/08 10:36:39;;;;;;;7.15;3.70;;;;;;;13.06;86.43;100048.88;5037023;28;20045;-72
2022/11/08 10:39:08;;;;;;;8.93;3.63;;;;;;;12.97;86.22;100065.38;5045760;28;20520;-72
2022/11/08 10:41:49;;;;;;;7.25;4.20;;;;;;;12.84;87.34;100043.16;5038272;28;20042;-70
2022/11/08 10:44:19;;;;;;;;;;;;;;;12.96;85.95;100061.00;5039609;28;20063;-72
2022/11/08 10:46:56;;;;;;;9.02;3.90;;;;;;;12.87;86.60;100057.13;5048716;28;19944;-72
2022/11/08 10:49:25;;;;;;;8.13;3.58;;;;;;;12.87;87.36;100059.78;5036624;28;20136;-72
2022/11/08 10:51:58;;;;;;;5.40;3.90;;;;;;;12.74;87.58;100050.00;5040699;28;20089;-71
2022/11/08 10:54:50;;;;;;;6.88;3.53;;;;;;;12.84;88.60;100067.06;5040246;28;20048;-74
2022/11/08 10:57:22;;;;;;;4.90;3.35;;;;;;;12.81;88.08;100046.84;5041917;28;20048;-72
2022/11/08 10:59:49;;;;;;;8.63;4.55;;;;;;;13.08;88.66;100046.94;5044652;28;20053;-72
2022/11/08 11:02:27;;;;;;;7.30;3.75;;;;;;;13.22;87.51;100049.59;5035273;28;20053;-75
2022/11/08 11:05:14;;;;;;;6.13;3.03;;;;;;;13.51;87.42;100049.56;5037015;28;20135;-70
2022/11/08 11:07:44;;;;;;;6.53;3.42;;;;;;;13.72;85.39;100050.81;5043755;28;20106;-75
2022/11/08 11:10:17;;;;;;;3.85;2.92;;;;;;;13.95;84.93;100041.34;5041520;28;20057;-74
2022/11/08 11:12:49;;;;;;;8.80;4.22;;;;;;;14.00;82.25;100036.56;5031553;28;20069;-74
2022/11/08 11:15:16;;;;;;;6.57;3.92;;;;;;;13.94;82.24;100031.66;5038238;28;20052;-74
2022/11/08 11:17:45;;;;;;;7.05;3.53;;;;;;;13.68;82.77;100038.69;5043492;28;20049;-75
2022/11/08 11:20:21;;;;;;;10.00;3.70;;;;;;;13.53;84.54;100042.34;5043717;28;20045;-74
2022/11/08 11:22:48;;;;;;;4.82;3.13;;;;;;;13.53;84.75;100040.56;5037478;28;20040;-75
2022/11/08 11:25:18;;;;;;;7.97;3.33;;;;;;;13.61;85.17;100029.41;5044016;28;20059;-71
2022/11/08 11:27:52;;;;;;;4.83;3.70;;;;;;;13.66;85.07;100017.50;5042742;28;20049;-72
2022/11/08 11:30:28;;;;;;;8.95;3.30;;;;;;;13.75;82.95;100010.72;5040412;28;20053;-72
2022/11/08 11:33:24;;;;;;;7.90;3.22;;;;;;;13.94;82.62;100026.31;5034661;28;20787;-75
2022/11/08 11:35:57;;;;;;;9.30;5.80;;;;;;;13.74;82.58;100001.03;5040221;28;20098;-75
2022/11/08 11:38:40;;;;;;;9.57;4.50;;;;;;;13.83;81.81;100010.22;5042728;28;20841;-72
2022/11/08 11:41:38;;;;;;;6.13;3.58;;;;;;;13.82;81.88;100019.16;5039474;28;20041;-74
2022/11/08 11:44:24;;;;;;;6.68;4.25;;;;;;;13.85;82.57;100017.13;5013750;28;20068;-75
2022/11/08 11:47:00;;;;;;;6.55;2.90;;;;;;;13.98;83.19;100003.88;5047333;28;20048;-74
2022/11/08 11:49:29;;;;;;;5.95;3.03;;;;;;;13.90;81.22;99998.19;5042117;28;20045;-72
2022/11/08 11:51:56;;;;;;;5.57;3.13;;;;;;;14.01;81.75;100011.63;5035745;28;20049;-71
2022/11/08 11:54:28;;;;;;;4.35;2.25;;;;;;;14.03;81.01;100001.75;5046035;28;20139;-74